Airport View

Enter AWOS ICAO identifier for current METAR.

ex. KFNL

KNXP 210056Z AUTO 03007KT 10SM CLR 28/M04 A2992 RMK AO2 SLP101 T02831044

21 Sep 2019 01:19

Other Area AWOS: KPSP - KL35 - KTRM - KDAG

TAF KNXP 2021/2121 02012G20KT 9999 SKC QNH2996INS BECMG 2101/2103 26006KT 9999 SKC QNH2991INS BECMG 2118/2120 02008G15KT 9999 SKC QNH2987INS T29/2023Z T17/2113Z